Time;durP1;ratioP1;P1;durP2;ratioP2;P2;SDS_P1;SDS_P2;PMS_P1;PMS_P2;Temp;Humidity;BMP_temperature;BMP_pressure;BME280_temperature;BME280_humidity;BME280_pressure;Samples;Min_cycle;Max_cycle;Signal;HPM_P1;HPM_P2
2020/12/28 00:01:36;;;;;;;35.92;17.67;;;-0.70;97.20;;;;;;4997829;28;20061;-76
2020/12/28 00:04:02;;;;;;;40.17;19.05;;;-0.60;97.30;;;;;;5015329;28;20060;-77
2020/12/28 00:06:28;;;;;;;39.63;18.67;;;-0.60;97.20;;;;;;5015569;28;20523;-76
2020/12/28 00:08:53;;;;;;;34.72;16.23;;;-0.60;97.20;;;;;;4998154;28;20030;-76
2020/12/28 00:11:19;;;;;;;36.45;17.10;;;-0.60;97.20;;;;;;4997782;28;20026;-76
2020/12/28 00:13:46;;;;;;;33.75;16.05;;;-0.60;97.20;;;;;;5015050;28;20030;-77
2020/12/28 00:16:13;;;;;;;38.22;16.20;;;-0.50;97.20;;;;;;5014966;28;20022;-75
2020/12/28 00:18:40;;;;;;;38.60;17.63;;;-0.60;97.10;;;;;;5015356;28;20100;-77
2020/12/28 00:21:06;;;;;;;45.28;16.98;;;-0.60;97.10;;;;;;5015844;28;20026;-77
2020/12/28 00:23:32;;;;;;;35.72;17.50;;;-0.60;97.20;;;;;;5015265;28;20093;-76
2020/12/28 00:25:58;;;;;;;37.03;17.52;;;-0.60;97.10;;;;;;5014901;28;20043;-76
2020/12/28 00:28:24;;;;;;;36.50;17.67;;;-0.60;97.00;;;;;;5014942;28;20026;-76
2020/12/28 00:30:49;;;;;;;35.72;17.27;;;-0.60;97.10;;;;;;5014715;28;20461;-76
2020/12/28 00:33:15;;;;;;;40.78;18.38;;;-0.60;97.10;;;;;;5014888;28;20109;-76
2020/12/28 00:35:43;;;;;;;38.08;17.73;;;-0.60;97.40;;;;;;5014865;28;20037;-76
2020/12/28 00:38:09;;;;;;;39.78;18.65;;;-0.60;97.20;;;;;;5014939;28;20041;-75
2020/12/28 00:40:35;;;;;;;38.92;17.88;;;-0.60;97.10;;;;;;5014852;28;20040;-75
2020/12/28 00:43:00;;;;;;;38.53;18.10;;;-0.60;97.10;;;;;;5014603;28;20528;-75
2020/12/28 00:45:26;;;;;;;37.95;17.73;;;-0.60;97.00;;;;;;5014494;28;20040;-76
2020/12/28 00:47:52;;;;;;;36.05;17.20;;;-0.70;97.00;;;;;;5015364;28;20050;-78
2020/12/28 00:50:18;;;;;;;38.88;17.85;;;-0.70;97.00;;;;;;5015542;28;20417;-77
2020/12/28 00:52:43;;;;;;;32.28;14.73;;;-0.70;97.00;;;;;;5015135;28;20033;-77
2020/12/28 00:55:09;;;;;;;37.58;15.95;;;-0.70;97.10;;;;;;5015282;28;20037;-78
2020/12/28 00:57:35;;;;;;;37.75;16.30;;;-0.70;97.20;;;;;;4997506;28;20030;-77
2020/12/28 01:00:00;;;;;;;27.75;13.98;;;-0.60;97.20;;;;;;5015094;28;20114;-77
2020/12/28 01:02:26;;;;;;;32.90;15.73;;;-0.60;97.20;;;;;;4996933;28;20734;-77
2020/12/28 01:04:52;;;;;;;31.77;16.08;;;-0.60;97.20;;;;;;5015042;28;20037;-78
2020/12/28 01:07:17;;;;;;;32.60;15.43;;;-0.60;97.20;;;;;;5014902;28;20091;-77
2020/12/28 01:09:43;;;;;;;33.90;16.70;;;-0.70;97.20;;;;;;5014991;28;20473;-77
2020/12/28 01:12:09;;;;;;;34.05;16.42;;;-0.60;97.20;;;;;;5014758;28;20028;-77
2020/12/28 01:14:35;;;;;;;29.95;15.75;;;-0.60;97.20;;;;;;5013955;28;20030;-76
2020/12/28 01:17:00;;;;;;;34.97;16.23;;;-0.70;97.10;;;;;;4996471;28;20077;-76
2020/12/28 01:19:26;;;;;;;31.58;15.77;;;-0.60;97.20;;;;;;5014211;28;20487;-76
2020/12/28 01:21:52;;;;;;;33.47;16.63;;;-0.70;97.10;;;;;;5014009;28;20034;-76
2020/12/28 01:24:17;;;;;;;30.98;15.82;;;-0.70;97.00;;;;;;5013946;28;20034;-76
2020/12/28 01:26:43;;;;;;;38.60;16.23;;;-0.70;97.00;;;;;;4996393;28;20030;-76
2020/12/28 01:29:10;;;;;;;30.40;15.50;;;-0.70;97.00;;;;;;5013892;28;20026;-77
2020/12/28 01:31:36;;;;;;;37.33;16.38;;;-0.70;97.10;;;;;;5013898;28;20033;-76
2020/12/28 01:34:02;;;;;;;31.85;16.23;;;-0.70;97.20;;;;;;5013563;28;20044;-76
2020/12/28 01:36:28;;;;;;;36.22;16.95;;;-0.70;97.30;;;;;;4996040;28;20480;-76
2020/12/28 01:38:53;;;;;;;29.75;16.25;;;-0.70;97.30;;;;;;5013641;28;20476;-76
2020/12/28 01:41:19;;;;;;;36.33;17.65;;;-0.70;97.30;;;;;;4996157;28;20026;-75
2020/12/28 01:43:45;;;;;;;37.58;18.95;;;-0.70;97.30;;;;;;5013236;28;20108;-75
2020/12/28 01:46:12;;;;;;;46.45;20.42;;;-0.60;97.30;;;;;;5013387;28;20698;-76
2020/12/28 01:48:38;;;;;;;47.38;21.70;;;-0.60;97.30;;;;;;5013210;28;20058;-76
2020/12/28 01:51:04;;;;;;;41.92;20.25;;;-0.60;97.30;;;;;;5013638;28;20081;-76
2020/12/28 01:53:30;;;;;;;41.90;20.27;;;-0.60;97.30;;;;;;5013194;28;20022;-75
2020/12/28 01:56:02;;;;;;;42.75;20.08;;;-0.60;97.30;;;;;;4995619;28;20426;-76
2020/12/28 01:58:29;;;;;;;32.50;17.40;;;-0.50;97.30;;;;;;4995604;28;20026;-76
2020/12/28 02:00:55;;;;;;;34.33;17.10;;;-0.60;97.20;;;;;;5013159;28;20041;-76
2020/12/28 02:03:21;;;;;;;31.23;14.77;;;-0.60;97.20;;;;;;4995811;28;20037;-76
2020/12/28 02:05:48;;;;;;;31.17;15.20;;;-0.60;97.10;;;;;;5013655;28;20129;-76
2020/12/28 02:08:14;;;;;;;35.05;15.98;;;-0.60;97.10;;;;;;5013108;28;20026;-76
2020/12/28 02:10:40;;;;;;;34.20;13.70;;;-0.60;97.20;;;;;;5012446;28;20476;-76
2020/12/28 02:13:05;;;;;;;29.02;14.15;;;-0.60;97.30;;;;;;5012660;28;20018;-77
2020/12/28 02:15:31;;;;;;;32.22;15.15;;;-0.50;97.30;;;;;;5012732;28;20026;-77
2020/12/28 02:17:58;;;;;;;29.05;13.15;;;-0.50;97.20;;;;;;5012459;28;20034;-76
2020/12/28 02:20:24;;;;;;;31.83;14.55;;;-0.50;97.30;;;;;;5012349;28;20073;-76
2020/12/28 02:22:49;;;;;;;31.92;15.60;;;-0.50;97.20;;;;;;5012440;28;20033;-76
2020/12/28 02:25:15;;;;;;;28.60;14.45;;;-0.50;97.20;;;;;;5012329;28;20041;-77
2020/12/28 02:27:41;;;;;;;32.72;14.93;;;-0.50;97.20;;;;;;5012605;28;20029;-77
2020/12/28 02:30:06;;;;;;;31.75;14.10;;;-0.50;97.20;;;;;;5012620;28;20021;-77
2020/12/28 02:32:32;;;;;;;35.85;16.42;;;-0.50;97.20;;;;;;5012312;28;20482;-77
2020/12/28 02:34:58;;;;;;;38.92;17.17;;;-0.60;97.20;;;;;;5012550;28;20038;-77
2020/12/28 02:37:23;;;;;;;37.85;16.00;;;-0.60;97.20;;;;;;5012548;28;20038;-77
2020/12/28 02:39:50;;;;;;;28.92;14.43;;;-0.60;97.20;;;;;;5012416;28;20034;-77
2020/12/28 02:42:15;;;;;;;29.15;14.15;;;-0.60;97.20;;;;;;5012488;28;20089;-77
2020/12/28 02:44:41;;;;;;;29.38;14.82;;;-0.60;97.20;;;;;;5012197;28;20034;-77
2020/12/28 02:47:07;;;;;;;29.65;15.18;;;-0.60;97.20;;;;;;4994213;28;20022;-77
2020/12/28 02:49:32;;;;;;;30.40;14.57;;;-0.50;97.40;;;;;;4995025;28;20084;-77
2020/12/28 02:51:58;;;;;;;37.55;14.93;;;-0.50;97.40;;;;;;5012608;28;20044;-76
2020/12/28 02:54:24;;;;;;;25.80;13.85;;;-0.50;97.40;;;;;;5012163;28;20041;-76
2020/12/28 02:56:49;;;;;;;31.38;14.85;;;-0.50;97.50;;;;;;5012156;28;20088;-76
2020/12/28 02:59:15;;;;;;;30.42;14.88;;;-0.40;97.60;;;;;;5012031;28;20033;-76
2020/12/28 03:01:41;;;;;;;31.90;16.05;;;-0.40;97.50;;;;;;5012169;28;20101;-76
2020/12/28 03:04:06;;;;;;;38.28;17.63;;;-0.30;97.60;;;;;;5012320;28;20049;-76
2020/12/28 03:06:32;;;;;;;34.75;17.15;;;-0.30;97.50;;;;;;5011999;28;20033;-76
2020/12/28 03:08:58;;;;;;;30.65;15.35;;;-0.20;97.60;;;;;;5012209;28;20022;-76
2020/12/28 03:11:24;;;;;;;29.20;14.93;;;-0.20;97.50;;;;;;5012376;28;20037;-76
2020/12/28 03:13:50;;;;;;;37.13;16.67;;;-0.20;97.50;;;;;;5012101;28;20034;-75
2020/12/28 03:16:16;;;;;;;31.70;16.90;;;-0.20;97.50;;;;;;5012203;28;20054;-76
2020/12/28 03:18:41;;;;;;;33.20;16.80;;;-0.10;97.50;;;;;;5012326;28;20479;-76
2020/12/28 03:21:08;;;;;;;37.13;16.77;;;-0.10;97.50;;;;;;5013923;28;20033;-76
2020/12/28 03:23:33;;;;;;;35.63;17.52;;;-0.10;97.40;;;;;;5015768;28;20369;-76
2020/12/28 03:25:59;;;;;;;42.58;18.35;;;-0.10;97.40;;;;;;4998460;28;20037;-76
2020/12/28 03:28:25;;;;;;;38.38;17.80;;;-0.10;97.50;;;;;;5015908;28;20076;-76
2020/12/28 03:30:50;;;;;;;31.25;17.10;;;-0.10;97.40;;;;;;5015991;28;20086;-76
2020/12/28 03:33:16;;;;;;;37.03;17.50;;;-0.10;97.40;;;;;;5016071;28;20773;-76
2020/12/28 03:35:43;;;;;;;38.22;17.67;;;0.00;97.40;;;;;;5015732;28;20109;-77
2020/12/28 03:38:09;;;;;;;35.33;18.23;;;0.00;97.40;;;;;;5015800;28;20065;-76
2020/12/28 03:40:35;;;;;;;32.75;15.93;;;0.00;97.40;;;;;;5015664;28;20453;-76
2020/12/28 03:43:01;;;;;;;35.38;16.58;;;0.00;97.40;;;;;;5015694;28;20085;-76
2020/12/28 03:45:26;;;;;;;37.72;16.27;;;0.00;97.60;;;;;;5015549;28;20468;-76
2020/12/28 03:47:52;;;;;;;30.65;15.38;;;0.00;97.40;;;;;;5015438;28;20109;-76
2020/12/28 03:50:18;;;;;;;37.65;16.73;;;0.10;97.30;;;;;;5015554;28;20041;-76
2020/12/28 03:52:43;;;;;;;31.30;14.40;;;0.00;97.30;;;;;;5015417;28;20473;-77
2020/12/28 03:55:10;;;;;;;31.50;15.68;;;0.00;97.30;;;;;;5015430;28;20037;-77
2020/12/28 03:57:35;;;;;;;26.25;13.32;;;0.00;97.30;;;;;;5015535;28;20457;-76
2020/12/28 04:00:01;;;;;;;35.30;16.27;;;0.10;97.30;;;;;;5015260;28;20085;-77
2020/12/28 04:02:27;;;;;;;31.90;15.55;;;0.00;97.20;;;;;;5015303;28;20037;-77
2020/12/28 04:04:53;;;;;;;36.42;16.23;;;0.10;97.30;;;;;;4997682;28;20061;-76
2020/12/28 04:07:19;;;;;;;26.98;14.95;;;0.10;97.30;;;;;;5015277;28;20034;-77
2020/12/28 04:09:45;;;;;;;39.03;18.30;;;0.10;97.40;;;;;;5015313;28;20026;-77
2020/12/28 04:12:11;;;;;;;38.33;18.20;;;0.10;97.40;;;;;;5015412;28;20057;-77
2020/12/28 04:14:37;;;;;;;35.40;17.45;;;0.10;97.30;;;;;;5015130;28;20488;-75
2020/12/28 04:17:03;;;;;;;36.25;17.67;;;0.20;97.40;;;;;;5015525;28;20071;-77
2020/12/28 04:19:28;;;;;;;35.40;17.25;;;0.20;97.30;;;;;;5015181;28;20069;-77
2020/12/28 04:21:54;;;;;;;63.33;24.30;;;0.20;97.30;;;;;;5014954;28;20037;-76
2020/12/28 04:24:20;;;;;;;33.47;15.75;;;0.20;97.20;;;;;;5014938;28;20034;-75
2020/12/28 04:26:45;;;;;;;30.20;14.88;;;0.20;97.20;;;;;;5014794;28;20053;-75
2020/12/28 04:29:12;;;;;;;33.70;14.57;;;0.20;97.30;;;;;;5015155;28;20021;-75
2020/12/28 04:31:38;;;;;;;31.38;14.98;;;0.20;97.30;;;;;;5014724;28;20025;-75
2020/12/28 04:34:05;;;;;;;30.95;14.80;;;0.30;97.40;;;;;;4996946;28;20424;-75
2020/12/28 04:36:31;;;;;;;26.80;13.35;;;0.30;97.40;;;;;;4997044;28;20073;-75
2020/12/28 04:38:56;;;;;;;30.35;15.10;;;0.30;97.30;;;;;;4997436;28;20033;-75
2020/12/28 04:41:22;;;;;;;33.08;13.98;;;0.30;97.30;;;;;;5014383;28;20026;-75
2020/12/28 04:43:49;;;;;;;30.58;15.13;;;0.30;97.30;;;;;;5014165;28;20112;-75
2020/12/28 04:46:15;;;;;;;27.23;14.30;;;0.30;97.30;;;;;;5014052;28;20030;-75
2020/12/28 04:48:41;;;;;;;31.00;14.07;;;0.40;97.30;;;;;;5013926;28;20121;-76
2020/12/28 04:51:07;;;;;;;26.80;12.38;;;0.40;97.30;;;;;;5014045;28;20026;-76
2020/12/28 04:53:35;;;;;;;22.75;11.98;;;0.40;97.30;;;;;;5014161;28;20047;-76
2020/12/28 04:56:00;;;;;;;24.98;11.93;;;0.40;97.30;;;;;;5014143;28;20030;-76
2020/12/28 04:58:26;;;;;;;23.08;12.25;;;0.40;97.20;;;;;;5014158;28;20037;-76
2020/12/28 05:00:57;;;;;;;26.35;11.98;;;0.40;97.10;;;;;;5013857;28;20460;-77
2020/12/28 05:03:24;;;;;;;41.88;13.98;;;0.40;97.10;;;;;;5013869;28;20034;-76
2020/12/28 05:05:50;;;;;;;39.47;13.93;;;0.40;97.00;;;;;;4996040;28;20482;-76
2020/12/28 05:08:18;;;;;;;37.40;16.65;;;0.40;97.00;;;;;;5013162;28;20084;-76
2020/12/28 05:10:43;;;;;;;37.35;17.40;;;0.40;97.00;;;;;;5013206;28;20030;-77
2020/12/28 05:13:10;;;;;;;36.60;14.88;;;0.40;97.30;;;;;;5013642;28;20384;-77
2020/12/28 05:15:57;;;;;;;29.48;13.27;;;0.40;97.00;;;;;;5013838;28;20056;-76
2020/12/28 05:18:23;;;;;;;27.58;13.05;;;0.40;97.00;;;;;;5013799;28;20056;-77
2020/12/28 05:20:49;;;;;;;35.38;15.25;;;0.50;97.20;;;;;;5013446;28;20472;-76
2020/12/28 05:23:16;;;;;;;32.63;16.67;;;0.50;97.00;;;;;;5013410;28;20041;-76
2020/12/28 05:25:46;;;;;;;33.47;14.57;;;0.50;97.00;;;;;;5013432;28;20037;-77
2020/12/28 05:28:18;;;;;;;30.48;15.57;;;0.50;97.10;;;;;;5013417;28;20102;-77
2020/12/28 05:30:45;;;;;;;25.83;12.18;;;0.50;96.90;;;;;;5013230;28;20021;-77
2020/12/28 05:33:12;;;;;;;32.95;15.52;;;0.60;96.90;;;;;;5013422;28;20109;-76
2020/12/28 05:35:38;;;;;;;33.70;17.27;;;0.50;96.80;;;;;;5013130;28;20026;-76
2020/12/28 05:38:07;;;;;;;38.20;18.42;;;0.50;96.80;;;;;;4995269;28;20084;-77
2020/12/28 05:40:34;;;;;;;40.38;20.25;;;0.50;96.80;;;;;;5012652;28;20033;-75
2020/12/28 05:43:00;;;;;;;44.40;19.83;;;0.50;96.70;;;;;;5013245;28;20030;-81
2020/12/28 05:45:26;;;;;;;49.60;23.23;;;0.40;96.60;;;;;;5011870;28;20048;-76
2020/12/28 05:47:59;;;;;;;46.58;22.60;;;0.40;96.40;;;;;;5012803;28;20129;-76
2020/12/28 05:50:31;;;;;;;47.20;21.30;;;0.30;96.40;;;;;;5012759;28;20029;-76
2020/12/28 05:53:01;;;;;;;47.05;22.08;;;0.30;96.30;;;;;;5013399;28;20021;-75
2020/12/28 05:55:31;;;;;;;51.60;25.38;;;0.30;96.40;;;;;;4995078;28;20025;-75
2020/12/28 05:57:58;;;;;;;47.75;22.45;;;0.20;96.50;;;;;;4995809;28;20480;-76
2020/12/28 06:00:27;;;;;;;40.22;20.00;;;0.20;96.40;;;;;;4994573;28;20443;-76
2020/12/28 06:02:53;;;;;;;48.10;22.63;;;0.20;96.50;;;;;;4994705;28;20022;-76
2020/12/28 06:05:20;;;;;;;54.88;24.45;;;0.20;96.50;;;;;;4992690;28;20033;-76
2020/12/28 06:07:47;;;;;;;51.55;23.20;;;0.20;96.60;;;;;;4992851;28;20028;-76
2020/12/28 06:10:13;;;;;;;36.80;18.85;;;0.10;96.60;;;;;;4992503;28;20026;-76
2020/12/28 06:12:40;;;;;;;39.25;18.85;;;0.20;96.90;;;;;;4992614;28;20500;-76
2020/12/28 06:15:18;;;;;;;32.47;16.58;;;0.20;96.70;;;;;;4975009;28;20026;-77
2020/12/28 06:17:44;;;;;;;47.03;19.08;;;0.20;96.70;;;;;;4992494;28;20073;-77
2020/12/28 06:20:11;;;;;;;41.42;20.10;;;0.20;96.70;;;;;;4992395;28;20035;-77
2020/12/28 06:22:38;;;;;;;39.50;18.35;;;0.20;96.80;;;;;;4975625;28;20604;-73
2020/12/28 06:25:05;;;;;;;37.42;18.67;;;0.20;96.90;;;;;;4992287;28;20103;-75
2020/12/28 06:27:38;;;;;;;40.28;18.95;;;0.30;96.90;;;;;;5006683;28;20025;-75
2020/12/28 06:30:21;;;;;;;43.13;19.30;;;0.30;96.80;;;;;;5006861;28;20019;-73
2020/12/28 06:33:04;;;;;;;37.70;18.23;;;0.30;96.90;;;;;;4991868;28;20053;-74
2020/12/28 06:35:31;;;;;;;30.52;16.13;;;0.40;96.80;;;;;;4990585;28;20463;-76
2020/12/28 06:38:00;;;;;;;37.00;17.33;;;0.40;96.70;;;;;;4991044;28;20097;-72
2020/12/28 06:40:31;;;;;;;40.13;20.20;;;0.40;96.60;;;;;;4991086;28;20409;-73
2020/12/28 06:43:11;;;;;;;33.08;14.63;;;0.40;96.60;;;;;;5005748;28;20054;-73
2020/12/28 06:45:38;;;;;;;44.05;18.85;;;0.40;96.80;;;;;;4990307;28;20030;-75
2020/12/28 06:48:15;;;;;;;35.65;17.52;;;0.40;96.90;;;;;;4990057;28;20202;-73
2020/12/28 06:50:40;;;;;;;39.97;19.10;;;0.50;96.80;;;;;;4990640;28;20029;-74
2020/12/28 06:53:06;;;;;;;42.40;19.50;;;0.50;96.80;;;;;;4972565;28;20018;-72
2020/12/28 06:55:32;;;;;;;34.30;16.08;;;0.60;96.80;;;;;;4990559;28;20050;-74
2020/12/28 06:58:01;;;;;;;35.05;17.65;;;0.50;96.70;;;;;;4991311;28;20033;-75
2020/12/28 07:00:26;;;;;;;46.47;22.73;;;0.50;96.60;;;;;;4991019;28;20038;-75
2020/12/28 07:02:53;;;;;;;47.42;23.25;;;0.50;96.70;;;;;;4990903;28;20081;-74
2020/12/28 07:05:23;;;;;;;45.83;20.00;;;0.50;96.60;;;;;;4990974;28;20105;-73
2020/12/28 07:07:50;;;;;;;57.80;27.52;;;0.60;96.50;;;;;;4991949;28;20087;-72
2020/12/28 07:10:17;;;;;;;34.28;16.88;;;0.60;96.90;;;;;;4991363;28;20081;-72
2020/12/28 07:12:43;;;;;;;46.63;23.60;;;0.60;96.50;;;;;;4991176;28;20019;-73
2020/12/28 07:15:10;;;;;;;43.83;20.88;;;0.60;96.50;;;;;;4990897;28;20081;-73
2020/12/28 07:17:35;;;;;;;46.35;22.33;;;0.50;96.40;;;;;;4990748;28;20022;-71
2020/12/28 07:20:04;;;;;;;52.22;24.40;;;0.60;96.50;;;;;;4990847;28;20105;-75
2020/12/28 07:22:36;;;;;;;41.58;19.98;;;0.60;96.50;;;;;;4990282;28;20109;-76
2020/12/28 07:25:03;;;;;;;42.55;21.08;;;0.60;96.50;;;;;;4991363;28;20084;-78
2020/12/28 07:27:29;;;;;;;44.92;21.73;;;0.70;96.60;;;;;;4974414;28;20385;-79
2020/12/28 07:29:55;;;;;;;46.40;23.08;;;0.70;96.50;;;;;;4992178;28;20062;-78
2020/12/28 07:32:21;;;;;;;47.97;21.35;;;0.70;96.50;;;;;;4992332;28;20027;-78
2020/12/28 07:34:54;;;;;;;55.60;24.48;;;0.70;96.30;;;;;;4991299;28;20056;-79
2020/12/28 07:37:20;;;;;;;49.28;22.45;;;0.60;96.20;;;;;;4991122;28;20037;-80
2020/12/28 07:39:47;;;;;;;52.65;24.38;;;0.60;96.10;;;;;;4991581;28;20034;-81
2020/12/28 07:42:27;;;;;;;50.83;22.63;;;0.60;96.30;;;;;;4992481;28;20030;-81
2020/12/28 07:44:58;;;;;;;50.67;23.23;;;0.60;96.30;;;;;;4992728;28;20073;-80
2020/12/28 07:47:54;;;;;;;46.08;22.48;;;0.70;96.40;;;;;;5005871;28;20481;-76
2020/12/28 07:50:21;;;;;;;43.47;23.00;;;0.60;96.30;;;;;;4984922;28;20129;-74
2020/12/28 07:53:00;;;;;;;52.17;25.60;;;0.70;96.50;;;;;;4990705;28;20026;-75
2020/12/28 07:55:29;;;;;;;44.00;22.20;;;0.70;96.50;;;;;;4990482;28;20110;-75
2020/12/28 07:58:07;;;;;;;48.58;23.30;;;0.70;96.60;;;;;;4990629;28;20027;-75
2020/12/28 08:00:42;;;;;;;40.45;21.58;;;0.70;96.40;;;;;;4990696;28;20026;-77
2020/12/28 08:03:15;;;;;;;49.42;22.15;;;0.70;96.30;;;;;;4991340;28;20783;-75
2020/12/28 08:05:41;;;;;;;49.85;24.65;;;0.70;96.20;;;;;;4972692;28;20045;-75
2020/12/28 08:08:25;;;;;;;45.92;20.30;;;0.70;96.10;;;;;;4992450;28;20026;-76
2020/12/28 08:11:00;;;;;;;45.50;23.17;;;0.70;96.20;;;;;;4994255;28;20068;-76
2020/12/28 08:13:31;;;;;;;46.95;22.73;;;0.70;96.30;;;;;;4976415;28;20027;-77
2020/12/28 08:16:13;;;;;;;47.63;22.17;;;0.80;96.40;;;;;;4994016;28;20030;-76
2020/12/28 08:18:45;;;;;;;42.42;19.30;;;0.80;96.50;;;;;;4976281;28;20511;-76
2020/12/28 08:21:11;;;;;;;;;;;0.80;96.20;;;;;;4976510;28;20038;-76
2020/12/28 08:23:37;;;;;;;44.17;21.80;;;0.80;96.40;;;;;;4993857;28;19905;-76
2020/12/28 08:26:13;;;;;;;42.67;19.25;;;0.80;96.30;;;;;;4993578;28;20509;-76
2020/12/28 08:28:39;;;;;;;53.60;22.88;;;0.80;96.00;;;;;;4993736;28;20092;-76
2020/12/28 08:31:04;;;;;;;47.65;21.63;;;0.90;96.30;;;;;;4993096;28;20022;-77
2020/12/28 08:33:30;;;;;;;44.22;20.20;;;0.90;96.30;;;;;;4994338;28;20434;-77
2020/12/28 08:35:56;;;;;;;47.40;22.98;;;0.90;96.30;;;;;;4993807;28;20048;-76
2020/12/28 08:38:30;;;;;;;44.38;19.92;;;0.90;96.30;;;;;;4993608;28;20031;-77
2020/12/28 08:40:56;;;;;;;48.08;21.90;;;1.00;96.30;;;;;;5008327;28;20031;-77
2020/12/28 08:43:22;;;;;;;47.40;22.80;;;1.00;96.30;;;;;;4993170;28;20033;-76
2020/12/28 08:45:48;;;;;;;45.88;22.15;;;1.20;96.80;;;;;;4975355;28;20388;-76
2020/12/28 08:48:21;;;;;;;54.38;21.35;;;1.20;96.70;;;;;;4992983;28;20042;-76
2020/12/28 08:50:46;;;;;;;40.50;20.40;;;1.40;96.90;;;;;;4993215;28;20073;-76
2020/12/28 08:53:21;;;;;;;42.42;20.52;;;1.50;97.00;;;;;;4993458;28;20022;-77
2020/12/28 08:55:59;;;;;;;40.90;19.55;;;1.60;96.60;;;;;;4993273;28;20081;-81
2020/12/28 08:58:25;;;;;;;42.97;19.50;;;1.60;96.30;;;;;;4993365;28;20755;-77
2020/12/28 09:00:51;;;;;;;51.03;23.60;;;1.70;96.40;;;;;;4975761;28;20074;-75
2020/12/28 09:03:17;;;;;;;54.58;22.10;;;1.80;96.70;;;;;;4992818;28;20026;-76
2020/12/28 09:05:42;;;;;;;55.92;23.77;;;1.80;96.50;;;;;;4992905;28;20472;-77
2020/12/28 09:08:08;;;;;;;54.45;24.60;;;1.90;96.50;;;;;;4993061;28;20094;-82
2020/12/28 09:10:34;;;;;;;52.67;24.70;;;1.90;96.40;;;;;;4994155;28;20429;-83
2020/12/28 09:12:59;;;;;;;53.38;25.10;;;1.90;95.90;;;;;;4994118;28;20022;-81
2020/12/28 09:15:25;;;;;;;44.33;22.45;;;1.90;96.00;;;;;;4976048;28;20081;-80
2020/12/28 09:17:51;;;;;;;50.15;24.08;;;1.90;96.00;;;;;;4993225;28;20023;-81
2020/12/28 09:20:16;;;;;;;52.25;24.25;;;1.90;95.90;;;;;;4993283;28;20031;-79
2020/12/28 09:22:42;;;;;;;48.95;23.17;;;1.90;95.90;;;;;;4993014;28;20053;-82
2020/12/28 09:25:08;;;;;;;49.08;22.17;;;2.00;95.90;;;;;;4975882;28;20035;-81
2020/12/28 09:27:34;;;;;;;50.08;24.35;;;2.00;95.60;;;;;;4993686;28;20023;-82
2020/12/28 09:29:59;;;;;;;55.42;24.17;;;2.00;95.50;;;;;;4993579;28;20365;-81
2020/12/28 09:32:25;;;;;;;57.88;22.50;;;2.00;95.30;;;;;;4994169;28;20051;-83
2020/12/28 09:34:52;;;;;;;49.50;24.52;;;1.90;95.00;;;;;;4977549;28;20113;-79
2020/12/28 09:37:17;;;;;;;60.38;27.50;;;1.80;94.80;;;;;;5009942;28;20794;-86
2020/12/28 09:39:43;;;;;;;49.63;21.52;;;1.70;94.70;;;;;;4994761;28;20054;-83
2020/12/28 09:42:09;;;;;;;52.83;24.85;;;1.70;94.80;;;;;;4976635;28;20031;-83
2020/12/28 09:44:34;;;;;;;48.00;22.17;;;1.60;94.80;;;;;;4976359;28;20030;-81
2020/12/28 09:47:00;;;;;;;41.47;22.17;;;1.60;94.50;;;;;;4994140;28;20073;-78
2020/12/28 09:49:26;;;;;;;43.65;19.70;;;1.50;94.60;;;;;;4994501;28;20073;-82
2020/12/28 09:51:55;;;;;;;35.85;17.55;;;1.50;94.70;;;;;;4996327;28;20027;-83
2020/12/28 09:54:22;;;;;;;47.55;21.27;;;1.50;94.80;;;;;;4994186;28;20373;-84
2020/12/28 09:56:48;;;;;;;50.63;24.67;;;1.40;94.70;;;;;;5011516;28;20025;-83
2020/12/28 09:59:14;;;;;;;44.03;20.92;;;1.40;94.70;;;;;;4978357;28;20113;-81
2020/12/28 10:01:43;;;;;;;56.80;24.90;;;1.40;94.70;;;;;;4994274;28;20018;-84
2020/12/28 10:04:09;;;;;;;53.92;24.17;;;1.40;94.60;;;;;;4976454;28;20105;-84
2020/12/28 10:06:35;;;;;;;67.25;26.13;;;1.30;94.80;;;;;;4993930;28;20109;-83
2020/12/28 10:09:06;;;;;;;47.72;21.38;;;1.30;94.70;;;;;;4976301;28;20473;-83
2020/12/28 10:11:33;;;;;;;43.63;20.35;;;1.30;94.70;;;;;;4993919;28;20264;-82
2020/12/28 10:13:58;;;;;;;49.53;22.33;;;1.20;94.70;;;;;;4994207;28;20208;-82
2020/12/28 10:16:26;;;;;;;47.03;22.13;;;1.20;94.90;;;;;;4993847;28;20470;-82
2020/12/28 10:18:55;;;;;;;46.75;22.52;;;1.20;94.90;;;;;;4993875;28;20022;-81
2020/12/28 10:21:22;;;;;;;45.63;21.65;;;1.20;94.70;;;;;;4994427;28;20030;-84
2020/12/28 10:23:48;;;;;;;50.10;23.02;;;1.20;95.00;;;;;;4994102;28;20159;-83
2020/12/28 10:26:22;;;;;;;51.75;23.60;;;1.20;95.10;;;;;;5008551;28;20065;-83
2020/12/28 10:28:49;;;;;;;48.58;22.20;;;1.20;94.90;;;;;;4993737;28;20044;-82
2020/12/28 10:31:16;;;;;;;51.13;24.02;;;1.20;95.20;;;;;;4993141;28;20097;-83
2020/12/28 10:33:43;;;;;;;49.35;23.65;;;1.20;95.20;;;;;;4976220;28;20113;-81
2020/12/28 10:36:18;;;;;;;47.10;23.45;;;1.20;95.20;;;;;;4994228;28;20416;-83
2020/12/28 10:38:46;;;;;;;47.28;21.05;;;1.20;95.00;;;;;;4993473;28;20062;-82
2020/12/28 10:41:12;;;;;;;49.00;23.50;;;1.20;95.10;;;;;;4993889;28;20030;-81
2020/12/28 10:43:37;;;;;;;48.65;22.83;;;1.20;95.10;;;;;;4994060;28;20040;-80
2020/12/28 10:46:06;;;;;;;52.95;21.95;;;1.20;95.20;;;;;;4993738;28;20110;-80
2020/12/28 10:48:32;;;;;;;51.20;23.40;;;1.20;95.30;;;;;;4992974;28;20058;-77
2020/12/28 10:50:57;;;;;;;46.35;23.35;;;1.20;95.20;;;;;;4992295;28;20105;-77
2020/12/28 10:53:23;;;;;;;53.05;24.38;;;1.20;95.20;;;;;;4992075;28;20037;-77
2020/12/28 10:55:49;;;;;;;51.20;23.20;;;1.30;95.40;;;;;;4992230;28;20394;-78
2020/12/28 10:58:15;;;;;;;59.63;23.05;;;1.20;95.30;;;;;;4992682;28;20528;-80
2020/12/28 11:00:41;;;;;;;51.90;23.35;;;1.30;95.30;;;;;;4994182;28;20022;-83
2020/12/28 11:03:07;;;;;;;50.97;23.75;;;1.30;95.30;;;;;;4976420;28;20373;-82
2020/12/28 11:05:33;;;;;;;43.88;22.85;;;1.30;95.60;;;;;;4993026;28;20034;-81
2020/12/28 11:07:58;;;;;;;54.17;25.77;;;1.40;95.70;;;;;;4993431;28;20030;-83
2020/12/28 11:10:24;;;;;;;47.67;21.50;;;1.40;95.70;;;;;;4992293;28;20085;-83
2020/12/28 11:12:50;;;;;;;53.55;22.77;;;1.40;95.60;;;;;;4993590;28;20026;-79
2020/12/28 11:15:16;;;;;;;51.03;22.58;;;1.40;95.40;;;;;;4993505;28;20377;-81
2020/12/28 11:17:41;;;;;;;50.72;21.73;;;1.40;95.50;;;;;;4993383;28;20026;-85
2020/12/28 11:20:10;;;;;;;55.78;25.38;;;1.40;95.30;;;;;;4993702;28;20030;-83
2020/12/28 11:22:38;;;;;;;51.97;26.65;;;1.40;95.40;;;;;;4993532;28;20026;-83
2020/12/28 11:25:04;;;;;;;49.00;23.48;;;1.50;95.50;;;;;;4993791;28;20465;-82
2020/12/28 11:27:31;;;;;;;46.40;19.92;;;1.50;95.50;;;;;;4994288;28;20026;-82
2020/12/28 11:29:58;;;;;;;50.50;20.67;;;1.50;95.50;;;;;;4993670;28;20026;-81
2020/12/28 11:32:24;;;;;;;51.28;21.15;;;1.40;95.30;;;;;;4993511;28;20081;-81
2020/12/28 11:34:50;;;;;;;47.38;22.88;;;1.40;95.20;;;;;;4992678;28;20045;-81
2020/12/28 11:37:17;;;;;;;58.08;25.00;;;1.40;95.10;;;;;;4992836;28;20034;-81
2020/12/28 11:39:43;;;;;;;46.60;21.70;;;1.40;95.20;;;;;;4975903;28;20038;-81
2020/12/28 11:42:09;;;;;;;51.95;22.40;;;1.40;95.20;;;;;;4975883;28;20087;-82
2020/12/28 11:44:43;;;;;;;42.03;19.10;;;1.40;95.30;;;;;;4997028;28;20120;-88
2020/12/28 11:47:09;;;;;;;39.50;17.13;;;1.40;95.20;;;;;;4978648;28;20030;-84
2020/12/28 11:49:35;;;;;;;34.67;17.92;;;1.30;95.00;;;;;;4979981;28;20026;-85
2020/12/28 11:52:01;;;;;;;51.17;23.63;;;1.30;95.40;;;;;;4979339;28;20026;-83
2020/12/28 11:54:27;;;;;;;38.15;17.73;;;1.30;95.00;;;;;;4979708;28;20027;-84
2020/12/28 11:56:52;;;;;;;44.20;19.52;;;1.20;94.80;;;;;;4996986;28;20086;-83
2020/12/28 11:59:18;;;;;;;42.97;19.90;;;1.20;94.90;;;;;;4979596;28;20030;-84
2020/12/28 12:01:48;;;;;;;38.17;19.02;;;1.10;95.10;;;;;;4996954;28;20473;-83
2020/12/28 12:04:14;;;;;;;39.17;17.30;;;1.20;95.40;;;;;;4996595;28;20030;-83
2020/12/28 12:06:40;;;;;;;47.05;19.90;;;1.20;95.30;;;;;;4996322;28;20028;-83
2020/12/28 12:09:15;;;;;;;44.63;20.10;;;1.20;95.40;;;;;;4996962;28;20026;-84
2020/12/28 12:11:43;;;;;;;48.40;23.25;;;1.20;95.60;;;;;;4996870;28;20456;-83
2020/12/28 12:14:21;;;;;;;39.45;21.52;;;1.20;95.70;;;;;;4996858;28;20105;-85
2020/12/28 12:16:46;;;;;;;48.25;23.13;;;1.20;95.60;;;;;;4997289;28;20026;-83
2020/12/28 12:19:12;;;;;;;42.03;20.50;;;1.30;95.60;;;;;;5011462;28;20105;-84
2020/12/28 12:21:38;;;;;;;40.80;19.23;;;1.30;95.70;;;;;;4996528;28;20030;-83
2020/12/28 12:24:06;;;;;;;42.22;19.42;;;1.30;95.70;;;;;;4996505;28;20030;-84
2020/12/28 12:26:35;;;;;;;36.75;18.00;;;1.30;95.80;;;;;;4996276;28;20037;-82
2020/12/28 12:29:01;;;;;;;36.40;17.40;;;1.40;95.80;;;;;;4978706;28;20065;-85
2020/12/28 12:31:26;;;;;;;26.42;13.18;;;1.40;95.70;;;;;;4996362;28;20061;-83
2020/12/28 12:33:52;;;;;;;34.10;16.35;;;1.40;95.60;;;;;;4996035;28;20030;-84